Time;durP1;ratioP1;P1;durP2;ratioP2;P2;SDS_P1;SDS_P2;PMS_P1;PMS_P2;Temp;Humidity;BMP_temperature;BMP_pressure;BME280_temperature;BME280_humidity;BME280_pressure;Samples;Min_cycle;Max_cycle;Signal;HPM_P1;HPM_P2
2023/03/05 00:02:19;;;;;;;3.53;1.05;;;13.80;70.20;;;;;;3904858;30;20063;-66
2023/03/05 00:04:59;;;;;;;2.00;1.10;;;13.80;70.20;;;;;;3927381;30;20059;-67
2023/03/05 00:07:40;;;;;;;2.00;1.20;;;13.80;70.20;;;;;;3915756;30;20079;-67
2023/03/05 00:10:21;;;;;;;5.13;1.00;;;13.80;70.20;;;;;;3913701;30;20193;-66
2023/03/05 00:13:04;;;;;;;2.40;0.68;;;13.80;70.30;;;;;;3919975;30;20651;-66
2023/03/05 00:15:44;;;;;;;4.85;1.27;;;13.80;70.10;;;;;;3927450;30;20075;-66
2023/03/05 00:18:25;;;;;;;4.13;1.00;;;13.80;70.60;;;;;;3913114;30;20122;-66
2023/03/05 00:21:18;;;;;;;2.38;0.80;;;13.90;71.20;;;;;;3912735;30;20063;-67
2023/03/05 00:24:00;;;;;;;3.70;1.00;;;14.00;70.70;;;;;;3901625;30;20066;-65
2023/03/05 00:26:41;;;;;;;5.85;1.38;;;14.10;70.50;;;;;;3909924;30;20055;-67
2023/03/05 00:29:24;;;;;;;3.85;1.10;;;14.20;70.20;;;;;;3916288;30;20609;-67
2023/03/05 00:32:05;;;;;;;5.53;1.13;;;14.30;70.00;;;;;;3915731;30;20071;-68
2023/03/05 00:34:45;;;;;;;2.85;1.02;;;14.30;69.80;;;;;;3926871;30;20137;-68
2023/03/05 00:37:26;;;;;;;4.22;1.17;;;14.40;69.60;;;;;;3926780;30;20059;-66
2023/03/05 00:40:09;;;;;;;3.28;1.17;;;14.40;69.20;;;;;;3926986;30;20055;-66
2023/03/05 00:42:50;;;;;;;2.13;1.10;;;14.40;68.80;;;;;;3926748;30;20064;-66
2023/03/05 00:45:32;;;;;;;4.30;1.15;;;14.50;68.90;;;;;;3927103;30;20112;-66
2023/03/05 00:48:13;;;;;;;6.68;1.15;;;14.50;69.00;;;;;;3891194;30;20060;-65
2023/03/05 00:50:54;;;;;;;5.43;1.10;;;14.50;69.00;;;;;;3904731;30;20063;-66
2023/03/05 00:53:35;;;;;;;7.28;1.23;;;14.60;68.80;;;;;;3919976;30;20129;-66
2023/03/05 00:56:17;;;;;;;4.30;1.10;;;14.70;68.60;;;;;;3924526;30;20059;-68
2023/03/05 00:58:58;;;;;;;5.68;1.30;;;14.70;68.30;;;;;;3900969;30;20150;-67
2023/03/05 01:01:40;;;;;;;7.50;1.35;;;14.80;68.10;;;;;;3919091;30;20059;-67
2023/03/05 01:04:21;;;;;;;2.28;0.88;;;14.90;67.90;;;;;;3926835;30;20079;-66
2023/03/05 01:07:02;;;;;;;4.45;1.30;;;14.90;67.70;;;;;;3905799;30;20063;-67
2023/03/05 01:09:43;;;;;;;4.63;1.17;;;14.90;67.70;;;;;;3906011;30;20063;-66
2023/03/05 01:12:24;;;;;;;4.82;0.90;;;14.90;67.60;;;;;;3913554;30;20099;-67
2023/03/05 01:15:06;;;;;;;2.47;1.02;;;14.90;67.40;;;;;;3915715;30;20054;-67
2023/03/05 01:17:48;;;;;;;1.98;1.25;;;14.90;66.70;;;;;;3926168;30;20093;-66
2023/03/05 01:20:29;;;;;;;4.88;1.13;;;14.90;66.50;;;;;;3912019;30;20138;-66
2023/03/05 01:23:10;;;;;;;3.38;1.10;;;14.90;67.20;;;;;;3909523;30;20153;-66
2023/03/05 01:25:57;;;;;;;4.68;0.90;;;14.90;67.50;;;;;;3910348;30;20054;-66
2023/03/05 01:28:38;;;;;;;1.67;0.65;;;14.90;67.20;;;;;;3926371;30;20483;-66
2023/03/05 01:31:20;;;;;;;5.50;1.10;;;15.00;67.20;;;;;;3915544;30;20574;-66
2023/03/05 01:34:02;;;;;;;5.40;1.08;;;14.90;67.30;;;;;;3915614;30;20063;-63
2023/03/05 01:36:43;;;;;;;3.35;0.98;;;14.90;67.30;;;;;;3926093;30;20147;-63
2023/03/05 01:39:24;;;;;;;3.17;1.02;;;14.90;67.40;;;;;;3926291;30;20115;-64
2023/03/05 01:42:06;;;;;;;4.67;0.83;;;14.90;67.40;;;;;;3926605;30;20065;-63
2023/03/05 01:45:01;;;;;;;4.85;1.20;;;14.90;67.30;;;;;;3926825;30;20655;-63
2023/03/05 01:47:42;;;;;;;5.50;1.10;;;14.90;67.00;;;;;;3925845;30;21934;-63
2023/03/05 01:50:27;;;;;;;7.07;1.65;;;15.00;67.20;;;;;;3900872;30;20059;-64
2023/03/05 01:53:08;;;;;;;6.90;0.85;;;15.00;67.00;;;;;;3911766;30;20409;-63
2023/03/05 01:55:49;;;;;;;3.33;1.10;;;15.10;66.90;;;;;;3912375;30;20558;-66
2023/03/05 01:58:30;;;;;;;1.75;0.88;;;15.10;66.70;;;;;;3914512;30;20054;-66
2023/03/05 02:01:11;;;;;;;2.45;0.70;;;15.10;66.70;;;;;;3911965;30;20064;-67
2023/03/05 02:03:52;;;;;;;1.38;0.50;;;15.10;66.70;;;;;;3912069;30;20118;-67
2023/03/05 02:06:35;;;;;;;2.00;1.00;;;15.20;66.70;;;;;;3909908;30;20062;-67
2023/03/05 02:09:17;;;;;;;1.70;0.85;;;15.20;66.50;;;;;;3926202;30;20489;-66
2023/03/05 02:11:57;;;;;;;0.75;0.57;;;15.20;66.40;;;;;;3926364;30;20170;-66
2023/03/05 02:14:40;;;;;;;1.10;0.50;;;15.20;66.40;;;;;;3926269;30;20059;-66
2023/03/05 02:17:21;;;;;;;2.63;0.80;;;15.20;66.40;;;;;;3920152;30;20063;-66
2023/03/05 02:20:06;;;;;;;2.17;0.82;;;15.30;66.30;;;;;;3928890;30;20059;-67
2023/03/05 02:22:48;;;;;;;1.50;0.40;;;15.30;66.30;;;;;;3928750;30;20421;-66
2023/03/05 02:25:29;;;;;;;5.97;0.93;;;15.30;66.30;;;;;;3925214;30;20163;-67
2023/03/05 02:28:16;;;;;;;2.22;0.50;;;15.30;66.10;;;;;;3928572;30;20118;-67
2023/03/05 02:30:58;;;;;;;1.55;0.40;;;15.30;66.00;;;;;;3928886;30;20537;-67
2023/03/05 02:33:39;;;;;;;1.77;0.70;;;15.30;66.10;;;;;;3922345;30;20075;-67
2023/03/05 02:36:20;;;;;;;2.50;0.90;;;15.30;66.10;;;;;;3910680;30;20526;-67
2023/03/05 02:39:03;;;;;;;3.38;0.55;;;15.30;66.80;;;;;;3910042;30;20048;-66
2023/03/05 02:41:44;;;;;;;2.35;0.73;;;15.40;65.90;;;;;;3928228;30;20059;-68
2023/03/05 02:44:25;;;;;;;4.63;1.20;;;15.30;66.00;;;;;;3917564;30;20067;-67
2023/03/05 02:47:07;;;;;;;;;;;15.40;66.10;;;;;;3928953;30;20058;-67
2023/03/05 02:49:48;;;;;;;3.00;0.57;;;15.40;66.00;;;;;;3917480;30;19936;-67
2023/03/05 02:52:32;;;;;;;2.17;0.52;;;15.40;66.00;;;;;;3917673;30;20074;-67
2023/03/05 02:55:15;;;;;;;2.58;1.02;;;15.40;65.90;;;;;;3917760;30;20069;-68
2023/03/05 02:57:56;;;;;;;1.88;0.65;;;15.40;65.90;;;;;;3903185;30;20450;-67
2023/03/05 03:00:37;;;;;;;2.08;0.60;;;15.40;65.80;;;;;;3913806;30;20068;-66
2023/03/05 03:03:18;;;;;;;2.63;0.60;;;15.40;65.60;;;;;;3913836;30;20159;-67
2023/03/05 03:05:59;;;;;;;2.65;0.90;;;15.40;65.90;;;;;;3913370;30;20063;-67
2023/03/05 03:08:40;;;;;;;5.18;0.82;;;15.40;65.90;;;;;;3913579;30;20059;-66
2023/03/05 03:11:22;;;;;;;4.60;1.27;;;15.40;65.90;;;;;;3913833;30;20405;-67
2023/03/05 03:14:03;;;;;;;2.25;1.20;;;15.40;65.90;;;;;;3913697;30;20060;-67
2023/03/05 03:16:43;;;;;;;4.10;1.13;;;15.40;65.80;;;;;;3913423;30;20176;-66
2023/03/05 03:19:24;;;;;;;3.90;0.90;;;15.40;66.50;;;;;;3902871;30;20195;-64
2023/03/05 03:22:06;;;;;;;2.37;0.90;;;15.40;66.10;;;;;;3902736;30;20070;-63
2023/03/05 03:24:47;;;;;;;5.28;1.10;;;15.40;66.20;;;;;;3915129;30;20652;-65
2023/03/05 03:27:29;;;;;;;2.83;1.00;;;15.40;67.00;;;;;;3927941;30;20111;-64
2023/03/05 03:30:12;;;;;;;1.42;0.52;;;15.40;65.80;;;;;;3927420;30;20059;-64
2023/03/05 03:32:52;;;;;;;3.38;0.70;;;15.40;65.80;;;;;;3917211;30;20121;-64
2023/03/05 03:35:33;;;;;;;3.37;0.60;;;15.50;65.90;;;;;;3920884;30;20063;-64
2023/03/05 03:38:14;;;;;;;0.45;0.40;;;15.50;65.70;;;;;;3913491;30;20510;-64
2023/03/05 03:40:55;;;;;;;2.85;0.60;;;15.50;66.30;;;;;;3902840;30;20064;-66
2023/03/05 03:43:38;;;;;;;1.50;0.50;;;15.60;65.50;;;;;;3914939;30;20127;-66
2023/03/05 03:46:19;;;;;;;2.40;0.70;;;15.60;65.30;;;;;;3915633;30;20102;-64
2023/03/05 03:48:59;;;;;;;2.72;0.65;;;15.60;66.20;;;;;;3912766;30;20586;-65
2023/03/05 03:51:40;;;;;;;3.42;0.98;;;15.60;65.30;;;;;;3907125;30;20121;-63
2023/03/05 03:54:22;;;;;;;1.00;0.57;;;15.50;65.30;;;;;;3926746;30;20071;-63
2023/03/05 03:57:03;;;;;;;;;;;15.50;65.30;;;;;;3910143;30;20058;-64
2023/03/05 03:59:45;;;;;;;5.35;0.90;;;15.60;65.40;;;;;;3918399;30;20432;-64
2023/03/05 04:02:26;;;;;;;2.42;0.70;;;15.50;65.50;;;;;;3926990;30;20063;-64
2023/03/05 04:05:08;;;;;;;4.17;1.40;;;15.50;65.30;;;;;;3927126;30;20055;-63
2023/03/05 04:07:49;;;;;;;3.78;0.50;;;15.50;65.40;;;;;;3916493;30;20309;-64
2023/03/05 04:10:30;;;;;;;2.67;0.77;;;15.50;65.40;;;;;;3915904;30;20063;-64
2023/03/05 04:13:10;;;;;;;1.88;0.80;;;15.40;65.60;;;;;;3927614;30;20051;-64
2023/03/05 04:15:54;;;;;;;1.80;0.73;;;15.40;65.20;;;;;;3926927;30;20164;-63
2023/03/05 04:18:35;;;;;;;2.53;0.60;;;15.50;66.00;;;;;;3909302;30;20100;-64
2023/03/05 04:21:15;;;;;;;0.90;0.50;;;15.50;65.40;;;;;;3913034;30;20084;-64
2023/03/05 04:23:56;;;;;;;1.50;0.60;;;15.50;65.40;;;;;;3897657;30;20175;-64
2023/03/05 04:26:37;;;;;;;3.43;1.03;;;15.50;65.40;;;;;;3919455;30;20283;-63
2023/03/05 04:29:18;;;;;;;5.13;0.90;;;15.40;65.50;;;;;;3915922;30;20129;-64
2023/03/05 04:32:01;;;;;;;2.05;0.68;;;15.40;65.60;;;;;;3927320;30;20070;-64
2023/03/05 04:34:42;;;;;;;2.22;0.60;;;15.40;65.70;;;;;;3916097;30;20063;-63
2023/03/05 04:37:22;;;;;;;1.13;0.57;;;15.40;65.80;;;;;;3901728;30;20052;-66
2023/03/05 04:40:04;;;;;;;0.95;0.60;;;15.40;65.70;;;;;;3921748;30;20292;-66
2023/03/05 04:42:45;;;;;;;2.65;0.70;;;15.40;65.60;;;;;;3927010;30;20205;-65
2023/03/05 04:45:26;;;;;;;1.35;0.60;;;15.40;66.60;;;;;;3922689;30;20137;-66
2023/03/05 04:48:10;;;;;;;2.03;0.50;;;15.40;66.00;;;;;;3912161;30;20058;-66
2023/03/05 04:50:51;;;;;;;2.33;0.60;;;15.30;66.00;;;;;;3925950;30;20079;-67
2023/03/05 04:53:32;;;;;;;1.65;0.50;;;15.30;66.30;;;;;;3926933;30;20227;-67
2023/03/05 04:56:13;;;;;;;1.57;0.43;;;15.30;66.60;;;;;;3905948;30;20075;-67
2023/03/05 04:58:53;;;;;;;1.87;0.70;;;15.20;66.50;;;;;;3914945;30;20133;-67
2023/03/05 05:01:34;;;;;;;4.32;1.00;;;15.20;67.50;;;;;;3926741;30;20400;-67
2023/03/05 05:04:16;;;;;;;1.77;0.67;;;15.20;66.70;;;;;;3927156;30;20425;-67
2023/03/05 05:06:58;;;;;;;2.05;0.60;;;15.20;66.80;;;;;;3926385;30;20313;-67
2023/03/05 05:09:40;;;;;;;;;;;15.10;66.80;;;;;;3920480;30;20133;-66
2023/03/05 05:12:20;;;;;;;2.45;0.50;;;15.10;66.90;;;;;;3926220;30;20049;-67
2023/03/05 05:15:02;;;;;;;1.15;0.63;;;15.10;67.20;;;;;;3925670;30;20149;-67
2023/03/05 05:17:43;;;;;;;1.92;0.75;;;15.20;67.20;;;;;;3925740;30;20500;-66
2023/03/05 05:20:25;;;;;;;3.13;0.73;;;15.30;66.90;;;;;;3926612;30;20063;-66
2023/03/05 05:23:05;;;;;;;3.88;0.70;;;15.30;66.50;;;;;;3900532;30;20138;-67
2023/03/05 05:25:46;;;;;;;4.30;1.23;;;15.40;66.40;;;;;;3911361;30;20055;-67
2023/03/05 05:28:27;;;;;;;2.55;0.63;;;15.40;66.10;;;;;;3901102;30;20512;-66
2023/03/05 05:31:09;;;;;;;4.30;0.65;;;15.40;65.90;;;;;;3912048;30;20405;-66
2023/03/05 05:33:50;;;;;;;1.05;0.70;;;15.40;65.80;;;;;;3911271;30;20083;-67
2023/03/05 05:36:32;;;;;;;2.63;1.00;;;15.40;65.90;;;;;;3912037;30;20198;-67
2023/03/05 05:39:13;;;;;;;0.95;0.60;;;15.40;65.90;;;;;;3926911;30;20047;-67
2023/03/05 05:41:54;;;;;;;2.03;1.13;;;15.50;65.80;;;;;;3926934;30;20077;-66
2023/03/05 05:44:35;;;;;;;4.68;0.90;;;15.50;65.70;;;;;;3918883;30;20569;-68
2023/03/05 05:47:16;;;;;;;3.13;0.80;;;15.50;65.60;;;;;;3920977;30;20059;-68
2023/03/05 05:49:57;;;;;;;;;;;15.40;65.60;;;;;;3915935;30;20357;-66
2023/03/05 05:52:39;;;;;;;2.63;0.77;;;15.40;65.70;;;;;;3928111;30;19975;-67
2023/03/05 05:55:20;;;;;;;3.92;0.77;;;15.40;66.00;;;;;;3928611;30;20421;-66
2023/03/05 05:58:01;;;;;;;3.45;1.30;;;15.30;66.00;;;;;;3929297;30;20059;-67
2023/03/05 06:00:42;;;;;;;2.63;0.80;;;15.30;66.20;;;;;;3929296;30;20063;-66
2023/03/05 06:03:23;;;;;;;3.63;0.70;;;15.30;66.50;;;;;;3929143;30;20301;-67
2023/03/05 06:06:08;;;;;;;2.78;0.70;;;15.30;66.50;;;;;;3917171;30;20055;-66
2023/03/05 06:08:50;;;;;;;5.55;1.17;;;15.40;66.10;;;;;;3928962;30;20063;-67
2023/03/05 06:11:32;;;;;;;2.20;0.70;;;15.50;65.70;;;;;;3929291;30;20059;-67
2023/03/05 06:14:13;;;;;;;;;;;15.60;66.30;;;;;;3929422;30;20063;-67
2023/03/05 06:16:54;;;;;;;2.95;0.70;;;15.70;65.20;;;;;;3928371;30;20091;-67
2023/03/05 06:19:34;;;;;;;1.50;0.95;;;15.60;65.10;;;;;;3928894;30;20058;-66
2023/03/05 06:22:15;;;;;;;4.70;1.00;;;15.60;65.00;;;;;;3928931;30;20059;-66
2023/03/05 06:24:58;;;;;;;2.88;1.00;;;15.60;65.00;;;;;;3921827;30;20536;-66
2023/03/05 06:27:39;;;;;;;1.48;0.80;;;15.60;65.10;;;;;;3908071;30;20416;-64
2023/03/05 06:30:20;;;;;;;4.93;1.00;;;15.60;65.10;;;;;;3914192;30;20077;-64
2023/03/05 06:33:01;;;;;;;8.33;1.63;;;15.70;65.00;;;;;;3914494;30;20059;-64
2023/03/05 06:35:42;;;;;;;2.40;0.98;;;15.80;64.60;;;;;;3926197;30;20059;-63
2023/03/05 06:38:23;;;;;;;4.72;1.02;;;15.90;64.50;;;;;;3913993;30;20054;-64
2023/03/05 06:41:11;;;;;;;5.28;1.00;;;15.90;64.30;;;;;;3902894;30;20142;-65
2023/03/05 06:43:52;;;;;;;3.30;0.95;;;15.90;64.90;;;;;;3914054;30;20071;-65
2023/03/05 06:46:36;;;;;;;2.23;0.80;;;16.00;64.00;;;;;;3909828;30;20558;-64
2023/03/05 06:49:17;;;;;;;4.25;1.00;;;16.00;64.00;;;;;;3916016;30;20186;-64
2023/03/05 06:51:57;;;;;;;2.20;0.90;;;16.00;64.70;;;;;;3928596;30;20071;-63
2023/03/05 06:54:39;;;;;;;3.97;0.73;;;16.00;63.40;;;;;;3922110;30;20064;-63
2023/03/05 06:57:21;;;;;;;2.15;0.63;;;16.00;62.90;;;;;;3928014;30;20137;-66
2023/03/05 07:00:02;;;;;;;4.10;1.10;;;16.00;63.30;;;;;;3917624;30;20075;-65
2023/03/05 07:02:43;;;;;;;2.47;0.80;;;16.10;63.80;;;;;;3926986;30;20063;-64
2023/03/05 07:05:24;;;;;;;4.55;1.42;;;16.10;63.40;;;;;;3927886;30;20063;-63
2023/03/05 07:08:05;;;;;;;1.02;0.60;;;16.10;63.50;;;;;;3923380;30;20055;-64
2023/03/05 07:10:46;;;;;;;2.83;0.77;;;16.10;63.60;;;;;;3902773;30;20059;-65
2023/03/05 07:13:29;;;;;;;1.75;0.73;;;16.10;63.70;;;;;;3927663;30;20058;-64
2023/03/05 07:16:14;;;;;;;3.22;0.85;;;16.00;63.50;;;;;;3914643;30;20479;-64
2023/03/05 07:18:57;;;;;;;3.28;0.88;;;16.00;63.50;;;;;;3913214;30;20149;-64
2023/03/05 07:21:38;;;;;;;3.42;0.80;;;16.00;63.70;;;;;;3927834;30;20059;-64
2023/03/05 07:24:19;;;;;;;3.78;0.70;;;16.00;63.70;;;;;;3927551;30;20051;-64
2023/03/05 07:27:00;;;;;;;2.92;0.85;;;16.00;63.50;;;;;;3917046;30;20063;-65
2023/03/05 07:29:43;;;;;;;2.17;0.60;;;15.90;63.50;;;;;;3913178;30;20580;-65
2023/03/05 07:32:23;;;;;;;3.35;0.55;;;15.80;63.50;;;;;;3913038;30;20138;-65
2023/03/05 07:35:05;;;;;;;2.50;0.70;;;15.80;63.70;;;;;;3922291;30;20115;-65
2023/03/05 07:37:46;;;;;;;;;;;15.70;63.90;;;;;;3908623;30;20710;-65
2023/03/05 07:40:26;;;;;;;1.75;0.85;;;15.70;64.30;;;;;;3902572;30;19937;-64
2023/03/05 07:43:07;;;;;;;2.75;1.00;;;15.70;65.20;;;;;;3913304;30;20054;-65
2023/03/05 07:45:50;;;;;;;4.72;1.10;;;15.80;63.80;;;;;;3924494;30;20063;-65
2023/03/05 07:48:30;;;;;;;3.28;0.85;;;15.80;63.40;;;;;;3927875;30;20058;-65
2023/03/05 07:51:15;;;;;;;2.17;0.90;;;15.90;63.30;;;;;;3927678;30;20350;-65
2023/03/05 07:53:57;;;;;;;2.55;0.82;;;16.00;63.00;;;;;;3927780;30;20059;-66
2023/03/05 07:56:38;;;;;;;2.88;1.08;;;16.10;62.70;;;;;;3916550;30;20137;-66
2023/03/05 07:59:19;;;;;;;2.47;0.85;;;16.10;62.50;;;;;;3912041;30;20063;-66
2023/03/05 08:02:01;;;;;;;2.53;0.75;;;16.20;62.20;;;;;;3919999;30;20063;-66
2023/03/05 08:04:42;;;;;;;6.60;1.25;;;16.30;61.60;;;;;;3927202;30;20063;-66
2023/03/05 08:07:23;;;;;;;3.33;0.82;;;16.40;61.20;;;;;;3927655;30;20190;-66
2023/03/05 08:10:05;;;;;;;1.30;0.65;;;16.30;61.60;;;;;;3927388;30;20197;-65
2023/03/05 08:12:46;;;;;;;2.25;0.70;;;16.40;60.60;;;;;;3924074;30;20193;-66
2023/03/05 08:15:27;;;;;;;3.38;0.85;;;16.30;60.40;;;;;;3918423;30;20066;-65
2023/03/05 08:18:10;;;;;;;4.75;0.70;;;16.20;60.20;;;;;;3926828;30;20504;-64
2023/03/05 08:20:50;;;;;;;2.90;0.82;;;16.20;60.40;;;;;;3922299;30;20062;-65
2023/03/05 08:23:33;;;;;;;2.72;0.90;;;16.10;60.80;;;;;;3915947;30;20492;-66
2023/03/05 08:26:14;;;;;;;1.90;0.50;;;16.00;61.10;;;;;;3918805;30;20052;-65
2023/03/05 08:28:55;;;;;;;4.40;0.85;;;16.10;61.20;;;;;;3912641;30;20063;-64
2023/03/05 08:31:37;;;;;;;2.58;1.13;;;16.10;61.00;;;;;;3911429;30;20153;-65
2023/03/05 08:34:19;;;;;;;5.80;0.90;;;16.10;60.70;;;;;;3912474;30;20055;-64
2023/03/05 08:37:00;;;;;;;5.28;0.90;;;16.10;60.60;;;;;;3912686;30;20083;-65
2023/03/05 08:39:41;;;;;;;5.20;0.80;;;16.10;61.50;;;;;;3906540;30;20077;-63
2023/03/05 08:42:23;;;;;;;4.40;0.90;;;16.00;60.60;;;;;;3914206;30;20134;-64
2023/03/05 08:45:04;;;;;;;3.70;1.20;;;15.90;60.70;;;;;;3909707;30;20068;-64
2023/03/05 08:47:44;;;;;;;1.90;0.80;;;15.90;61.10;;;;;;3912265;30;20209;-64
2023/03/05 08:50:27;;;;;;;3.63;0.93;;;15.80;60.70;;;;;;3912501;30;20060;-64
2023/03/05 08:53:08;;;;;;;2.50;0.77;;;15.70;60.30;;;;;;3918284;30;20108;-64
2023/03/05 08:55:54;;;;;;;4.38;0.70;;;15.50;60.80;;;;;;3915315;30;20082;-64
2023/03/05 08:58:35;;;;;;;3.58;0.73;;;15.50;61.40;;;;;;3907623;30;20078;-65
2023/03/05 09:01:16;;;;;;;3.22;0.77;;;15.40;62.10;;;;;;3913791;30;20066;-64
2023/03/05 09:03:58;;;;;;;3.97;0.80;;;15.40;62.50;;;;;;3910949;30;20524;-65
2023/03/05 09:06:40;;;;;;;3.72;0.80;;;15.40;62.90;;;;;;3920705;30;20126;-66
2023/03/05 09:09:22;;;;;;;2.60;1.00;;;15.40;62.20;;;;;;3917302;30;20062;-65
2023/03/05 09:12:03;;;;;;;4.05;1.17;;;15.40;62.30;;;;;;3912714;30;20488;-65
2023/03/05 09:14:44;;;;;;;4.22;0.85;;;15.50;62.30;;;;;;3925473;30;20063;-65
2023/03/05 09:17:25;;;;;;;1.63;0.70;;;15.50;62.20;;;;;;3926532;30;20063;-65
2023/03/05 09:20:07;;;;;;;6.73;0.80;;;15.50;64.00;;;;;;3918630;30;20052;-66
2023/03/05 09:22:49;;;;;;;3.20;0.60;;;15.50;64.10;;;;;;3921156;30;20297;-66
2023/03/05 09:25:30;;;;;;;1.65;0.95;;;15.40;65.10;;;;;;3911794;30;20195;-67
2023/03/05 09:28:11;;;;;;;3.58;1.20;;;15.40;64.70;;;;;;3908236;30;20554;-69
2023/03/05 09:30:54;;;;;;;3.22;0.82;;;15.30;65.10;;;;;;3915656;30;20059;-67
2023/03/05 09:33:34;;;;;;;;;;;15.30;66.90;;;;;;3923191;30;20059;-62
2023/03/05 09:36:21;;;;;;;9.00;0.90;;;15.20;67.90;;;;;;3926499;30;19982;-61
2023/03/05 09:39:05;;;;;;;1.85;0.55;;;15.20;67.60;;;;;;3926454;30;20055;-61
2023/03/05 09:42:07;;;;;;;3.25;0.60;;;15.20;67.80;;;;;;3926173;30;20377;-63
2023/03/05 09:45:02;;;;;;;1.63;0.32;;;15.40;69.10;;;;;;3922101;30;20524;-65
2023/03/05 09:47:53;;;;;;;0.70;0.32;;;15.90;67.70;;;;;;3911662;30;20164;-64
2023/03/05 09:50:42;;;;;;;2.22;0.80;;;16.40;65.80;;;;;;3919380;30;20490;-65
2023/03/05 09:53:34;;;;;;;1.58;0.68;;;17.10;63.70;;;;;;3913545;30;20394;-64
2023/03/05 09:56:22;;;;;;;1.67;0.80;;;17.70;59.60;;;;;;3925660;30;20066;-64
2023/03/05 09:59:14;;;;;;;4.00;1.70;;;18.20;58.50;;;;;;3925759;30;20476;-64
2023/03/05 10:01:57;;;;;;;0.88;0.43;;;18.50;57.60;;;;;;3925405;30;20090;-65
2023/03/05 10:04:45;;;;;;;3.33;0.70;;;18.80;56.60;;;;;;3911569;30;20063;-65
2023/03/05 10:07:29;;;;;;;3.33;0.68;;;18.90;55.70;;;;;;3911447;30;20187;-64
2023/03/05 10:10:14;;;;;;;0.82;0.32;;;19.00;52.50;;;;;;3913985;30;20609;-65
2023/03/05 10:13:03;;;;;;;2.00;0.50;;;18.90;53.20;;;;;;3926009;30;20087;-66
2023/03/05 10:15:50;;;;;;;1.08;0.60;;;18.80;56.40;;;;;;3925983;30;20063;-67
2023/03/05 10:18:37;;;;;;;2.17;0.63;;;18.70;57.00;;;;;;3914542;30;20068;-67
2023/03/05 10:21:21;;;;;;;2.33;0.60;;;18.60;55.90;;;;;;3916573;30;20520;-66
2023/03/05 10:24:11;;;;;;;2.30;0.77;;;18.60;55.50;;;;;;3911332;30;20062;-67
2023/03/05 10:27:02;;;;;;;3.87;0.80;;;18.60;55.10;;;;;;3911595;30;20061;-68
2023/03/05 10:30:03;;;;;;;3.97;0.90;;;18.60;56.10;;;;;;3912649;30;20434;-67
2023/03/05 10:32:50;;;;;;;1.73;0.85;;;18.50;56.70;;;;;;3905395;30;20063;-67
2023/03/05 10:36:10;;;;;;;2.03;0.40;;;18.40;56.30;;;;;;3904275;30;20067;-67
2023/03/05 10:39:18;;;;;;;1.40;0.30;;;18.40;56.50;;;;;;3907041;30;20063;-67
2023/03/05 10:42:06;;;;;;;2.15;0.68;;;18.40;56.70;;;;;;3928048;30;20059;-67
2023/03/05 10:44:52;;;;;;;2.17;0.98;;;18.40;57.30;;;;;;3928445;30;20063;-67
2023/03/05 10:47:42;;;;;;;2.55;0.75;;;18.50;56.70;;;;;;3928331;30;20051;-67
2023/03/05 10:50:26;;;;;;;1.42;0.50;;;18.50;54.30;;;;;;3913614;30;20435;-67
2023/03/05 10:53:18;;;;;;;2.25;0.70;;;18.60;52.60;;;;;;3913655;30;20063;-67
2023/03/05 10:56:02;;;;;;;2.90;1.25;;;18.60;53.90;;;;;;3919952;30;20066;-68
2023/03/05 10:58:42;;;;;;;0.82;0.60;;;18.60;54.00;;;;;;3925440;30;20088;-66
2023/03/05 11:01:27;;;;;;;2.10;0.55;;;18.50;53.50;;;;;;3917225;30;20054;-65
2023/03/05 11:04:25;;;;;;;2.85;0.75;;;18.40;56.50;;;;;;3928123;30;20593;-65
2023/03/05 11:07:28;;;;;;;2.28;0.80;;;18.40;57.00;;;;;;3913564;30;20098;-63
2023/03/05 11:10:18;;;;;;;4.07;1.15;;;18.40;55.70;;;;;;3910557;30;20636;-63
2023/03/05 11:12:59;;;;;;;3.92;0.93;;;18.50;55.60;;;;;;3913578;30;20520;-67
2023/03/05 11:15:39;;;;;;;5.27;0.97;;;18.50;55.90;;;;;;3913980;30;20513;-64
2023/03/05 11:18:23;;;;;;;4.45;0.52;;;18.60;55.10;;;;;;3913375;30;20432;-66
2023/03/05 11:21:10;;;;;;;1.25;0.60;;;18.60;56.70;;;;;;3899338;30;20110;-66
2023/03/05 11:24:13;;;;;;;2.63;0.70;;;18.70;57.20;;;;;;3908596;30;20183;-68
2023/03/05 11:26:58;;;;;;;2.33;1.00;;;18.80;57.00;;;;;;3923055;30;20166;-68
2023/03/05 11:29:48;;;;;;;3.72;0.93;;;18.80;57.30;;;;;;3928294;30;20067;-66
2023/03/05 11:32:30;;;;;;;2.40;0.60;;;18.80;57.00;;;;;;3916850;30;20189;-66
2023/03/05 11:35:30;;;;;;;3.90;0.68;;;18.80;57.00;;;;;;3927996;30;20209;-69
2023/03/05 11:38:17;;;;;;;3.47;0.90;;;18.80;55.20;;;;;;3927760;30;20137;-69
2023/03/05 11:40:58;;;;;;;3.85;1.30;;;18.70;56.20;;;;;;3927207;30;20055;-70
2023/03/05 11:43:41;;;;;;;3.83;0.80;;;18.70;56.60;;;;;;3927262;30;20121;-70
2023/03/05 11:46:23;;;;;;;2.35;0.70;;;18.70;56.50;;;;;;3927877;30;20129;-70
2023/03/05 11:49:06;;;;;;;4.80;1.27;;;18.70;57.20;;;;;;3916692;30;20059;-70
2023/03/05 11:51:57;;;;;;;1.33;0.75;;;18.60;57.20;;;;;;3927682;30;20467;-70
2023/03/05 11:54:45;;;;;;;2.93;1.00;;;18.70;56.90;;;;;;3916633;30;20071;-70
2023/03/05 11:57:26;;;;;;;3.13;1.52;;;18.80;55.40;;;;;;3927600;30;20067;-71
2023/03/05 12:00:14;;;;;;;2.92;0.65;;;18.80;56.70;;;;;;3926791;30;20154;-66
2023/03/05 12:02:58;;;;;;;1.58;0.82;;;18.80;55.30;;;;;;3927560;30;20071;-66
2023/03/05 12:05:44;;;;;;;1.58;0.70;;;18.80;56.20;;;;;;3927583;30;20641;-66
2023/03/05 12:08:31;;;;;;;1.98;0.50;;;18.80;55.50;;;;;;3916167;30;20194;-70
2023/03/05 12:11:18;;;;;;;1.50;0.70;;;18.80;56.20;;;;;;3927219;30;20078;-70
2023/03/05 12:14:06;;;;;;;3.22;0.85;;;18.70;56.10;;;;;;3916052;30;20136;-70
2023/03/05 12:16:52;;;;;;;3.10;0.80;;;18.70;56.60;;;;;;3927183;30;20063;-69
2023/03/05 12:19:40;;;;;;;3.70;1.00;;;18.70;57.60;;;;;;3916327;30;20495;-70
2023/03/05 12:22:23;;;;;;;2.17;0.45;;;18.70;56.80;;;;;;3927550;30;20270;-69
2023/03/05 12:25:25;;;;;;;5.32;2.08;;;18.80;57.10;;;;;;3916348;30;20059;-69
2023/03/05 12:28:13;;;;;;;;;;;18.80;56.60;;;;;;3916639;30;20393;-67
2023/03/05 12:30:59;;;;;;;2.13;0.77;;;18.80;57.40;;;;;;3922840;30;20105;-70
2023/03/05 12:33:42;;;;;;;0.82;0.50;;;18.80;57.40;;;;;;3920872;30;20059;-70
2023/03/05 12:36:35;;;;;;;1.58;0.65;;;18.70;57.10;;;;;;3927033;30;20063;-70
2023/03/05 12:39:48;;;;;;;2.42;0.73;;;18.70;55.60;;;;;;3924933;30;20075;-70
2023/03/05 12:42:51;;;;;;;1.42;0.60;;;18.70;55.10;;;;;;3926657;30;20527;-69
2023/03/05 12:45:40;;;;;;;1.92;0.80;;;18.60;56.00;;;;;;3910107;30;20555;-69
2023/03/05 12:48:43;;;;;;;1.98;0.40;;;18.60;56.90;;;;;;3927059;30;20101;-70
2023/03/05 12:51:32;;;;;;;1.45;0.80;;;18.60;56.40;;;;;;3926068;30;20059;-70
2023/03/05 12:54:26;;;;;;;2.45;0.98;;;18.60;56.60;;;;;;3924392;30;20148;-69
2023/03/05 12:57:17;;;;;;;3.05;0.60;;;18.60;56.60;;;;;;3923771;30;20084;-66
2023/03/05 13:00:07;;;;;;;2.15;0.57;;;18.60;56.50;;;;;;3926706;30;20194;-65
2023/03/05 13:02:54;;;;;;;2.47;0.68;;;18.60;57.10;;;;;;3910007;30;20516;-65
2023/03/05 13:05:38;;;;;;;2.78;0.40;;;18.60;56.70;;;;;;3926963;30;20067;-65
2023/03/05 13:08:22;;;;;;;3.40;0.63;;;18.60;56.60;;;;;;3915375;30;20055;-65
2023/03/05 13:11:06;;;;;;;1.15;0.60;;;18.60;56.70;;;;;;3912340;30;20587;-65
2023/03/05 13:13:49;;;;;;;1.45;0.30;;;18.60;56.70;;;;;;3915875;30;20064;-65
2023/03/05 13:16:38;;;;;;;2.17;0.60;;;18.60;57.40;;;;;;3926509;30;20082;-66
2023/03/05 13:19:19;;;;;;;1.20;0.52;;;18.70;56.20;;;;;;3910107;30;20140;-65
2023/03/05 13:22:01;;;;;;;2.08;0.40;;;18.70;55.90;;;;;;3911826;30;20138;-69
2023/03/05 13:24:42;;;;;;;1.80;0.47;;;18.70;56.30;;;;;;3912225;30;20060;-67
2023/03/05 13:27:30;;;;;;;2.55;0.60;;;18.60;56.60;;;;;;3912634;30;20093;-66
2023/03/05 13:30:21;;;;;;;1.38;0.50;;;18.60;57.00;;;;;;3898589;30;20126;-66
2023/03/05 13:33:05;;;;;;;1.55;0.80;;;18.60;56.30;;;;;;3911609;30;20186;-67
2023/03/05 13:35:47;;;;;;;3.50;0.80;;;18.50;56.90;;;;;;3911846;30;20059;-66
2023/03/05 13:38:33;;;;;;;2.45;0.60;;;18.40;56.60;;;;;;3911709;30;20539;-67
2023/03/05 13:41:23;;;;;;;2.67;0.63;;;18.30;56.70;;;;;;3900510;30;20366;-66
2023/03/05 13:44:04;;;;;;;2.60;0.65;;;18.20;56.90;;;;;;3900953;30;20106;-67
2023/03/05 13:46:45;;;;;;;1.90;0.93;;;18.10;57.90;;;;;;3911799;30;20056;-67
2023/03/05 13:49:27;;;;;;;2.85;0.82;;;18.00;58.10;;;;;;3911587;30;20454;-66
2023/03/05 13:52:08;;;;;;;3.55;0.68;;;17.90;58.20;;;;;;3900413;30;20063;-66
2023/03/05 13:54:49;;;;;;;1.95;0.68;;;17.90;58.30;;;;;;3911447;30;20507;-65
2023/03/05 13:57:36;;;;;;;2.30;0.40;;;17.90;58.50;;;;;;3911765;30;20095;-66
2023/03/05 14:00:29;;;;;;;4.03;0.80;;;17.90;58.50;;;;;;3911716;30;20417;-66
2023/03/05 14:03:22;;;;;;;1.48;0.32;;;17.90;58.50;;;;;;3900753;30;20193;-67
2023/03/05 14:06:08;;;;;;;2.28;0.60;;;18.00;58.40;;;;;;3911416;30;20056;-67
2023/03/05 14:08:52;;;;;;;2.90;1.08;;;18.10;58.00;;;;;;3911334;30;20060;-67
2023/03/05 14:11:34;;;;;;;1.90;0.85;;;18.10;58.20;;;;;;3904499;30;20365;-69
2023/03/05 14:14:17;;;;;;;1.42;0.77;;;18.20;58.00;;;;;;3913680;30;20198;-68